createdAt,value
2018-06-29T00:00:42.987Z,69.02
2018-06-29T00:01:42.911Z,68.84
2018-06-29T00:02:43.095Z,69.31
2018-06-29T00:03:42.904Z,68.93
2018-06-29T00:04:42.874Z,69.99
2018-06-29T00:05:42.873Z,69.51
2018-06-29T00:06:42.875Z,70.28
2018-06-29T00:07:42.859Z,70.28
2018-06-29T00:08:42.837Z,70.09
2018-06-29T00:09:42.844Z,70.37
2018-06-29T00:10:42.821Z,71.20
2018-06-29T00:11:42.805Z,71.40
2018-06-29T00:12:42.797Z,70.82
2018-06-29T00:13:42.805Z,71.59
2018-06-29T00:14:43.033Z,71.01
2018-06-29T00:15:42.780Z,70.92
2018-06-29T00:16:42.761Z,71.97
2018-06-29T00:17:42.751Z,71.69
2018-06-29T00:18:42.730Z,72.07
2018-06-29T00:19:42.738Z,71.88
2018-06-29T00:20:42.707Z,71.97
2018-06-29T00:21:42.700Z,72.65
2018-06-29T00:22:42.687Z,72.65
2018-06-29T00:23:42.683Z,72.74
2018-06-29T00:24:42.664Z,72.84
2018-06-29T00:25:42.669Z,73.32
2018-06-29T00:26:42.642Z,73.22
2018-06-29T00:27:42.642Z,73.03
2018-06-29T00:28:42.623Z,73.61
2018-06-29T00:29:42.610Z,73.22
2018-06-29T00:30:42.617Z,73.51
2018-06-29T00:31:42.593Z,73.03
2018-06-29T00:32:42.579Z,75.21
2018-06-29T00:33:42.563Z,75.49
2018-06-29T00:34:42.556Z,74.54
2018-06-29T00:35:42.566Z,74.82
2018-06-29T00:36:44.449Z,75.79
2018-06-29T00:37:42.550Z,75.79
2018-06-29T00:38:42.513Z,75.59
2018-06-29T00:39:42.502Z,75.69
2018-06-29T00:40:42.507Z,76.36
2018-06-29T00:41:42.479Z,76.75
2018-06-29T00:42:42.483Z,76.36
2018-06-29T00:43:42.457Z,76.46
2018-06-29T00:44:42.445Z,77.23
2018-06-29T00:45:42.451Z,76.81
2018-06-29T00:46:42.432Z,77.23
2018-06-29T00:47:42.407Z,77.04
2018-06-29T00:48:42.401Z,77.61
2018-06-29T00:49:42.389Z,77.71
2018-06-29T00:50:42.376Z,77.38
2018-06-29T00:51:42.385Z,77.76
2018-06-29T00:52:42.358Z,77.67
2018-06-29T00:53:42.345Z,78.44
2018-06-29T00:54:42.383Z,78.63
2018-06-29T00:55:42.330Z,78.15
2018-06-29T00:56:42.310Z,78.53
2018-06-29T00:57:42.314Z,78.15
2018-06-29T00:58:42.291Z,77.58
2018-06-29T00:59:42.274Z,78.34
2018-06-29T01:00:42.271Z,79.02
2018-06-29T01:01:42.255Z,79.30
2018-06-29T01:02:42.260Z,79.60
2018-06-29T01:03:42.247Z,79.02
2018-06-29T01:04:42.221Z,79.40
2018-06-29T01:05:42.227Z,80.07
2018-06-29T01:06:42.203Z,80.46
2018-06-29T01:07:42.184Z,80.27
2018-06-29T01:08:42.179Z,80.84
2018-06-29T01:09:42.162Z,80.84
2018-06-29T01:10:42.171Z,80.84
2018-06-29T01:11:42.154Z,80.17
2018-06-29T01:12:42.129Z,80.46
2018-06-29T01:13:42.117Z,80.46
2018-06-29T01:14:42.127Z,80.36
2018-06-29T01:15:42.124Z,80.36
2018-06-29T01:16:42.088Z,80.55
2018-06-29T01:17:42.074Z,81.23
2018-06-29T01:18:42.078Z,81.13
2018-06-29T01:19:42.053Z,82.38
2018-06-29T01:20:42.056Z,80.94
2018-06-29T01:21:42.036Z,82.05
2018-06-29T01:22:42.016Z,81.71
2018-06-29T01:23:42.006Z,82.24
2018-06-29T01:24:41.993Z,82.73
2018-06-29T01:25:41.999Z,83.49
2018-06-29T01:26:41.990Z,84.17
2018-06-29T01:27:41.976Z,83.87
2018-06-29T01:28:41.959Z,84.36
2018-06-29T01:29:41.938Z,84.64
2018-06-29T01:30:41.928Z,85.13
2018-06-29T01:31:41.945Z,85.13
2018-06-29T01:32:41.907Z,85.32
2018-06-29T01:33:41.894Z,85.71
2018-06-29T01:34:41.880Z,86.66
2018-06-29T01:35:41.872Z,87.15
2018-06-29T01:36:41.855Z,86.09
2018-06-29T01:37:41.859Z,87.15
2018-06-29T01:38:41.836Z,87.62
2018-06-29T01:39:41.820Z,86.52
2018-06-29T01:40:41.810Z,87.29
2018-06-29T01:41:42.468Z,87.19
2018-06-29T01:42:41.791Z,88.16
2018-06-29T01:43:41.777Z,88.16
2018-06-29T01:44:41.767Z,88.83
2018-06-29T01:45:41.752Z,88.64
2018-06-29T01:46:41.763Z,88.35
2018-06-29T01:47:41.732Z,89.02
2018-06-29T01:48:41.719Z,89.69
2018-06-29T01:49:41.707Z,89.89
2018-06-29T01:50:41.694Z,89.79
2018-06-29T01:51:41.697Z,89.40
2018-06-29T01:52:41.687Z,90.37
2018-06-29T01:53:41.663Z,90.56
2018-06-29T01:54:41.667Z,90.46
2018-06-29T01:55:41.639Z,90.66
2018-06-29T01:56:41.624Z,90.84
2018-06-29T01:57:41.628Z,91.13
2018-06-29T01:58:41.602Z,90.84
2018-06-29T01:59:41.589Z,91.13
2018-06-29T02:00:41.576Z,91.61
2018-06-29T02:01:41.564Z,91.52
2018-06-29T02:02:41.566Z,92.19
2018-06-29T02:03:41.547Z,91.42
2018-06-29T02:04:41.532Z,91.33
2018-06-29T02:05:41.521Z,91.61
2018-06-29T02:06:41.504Z,92.10
2018-06-29T02:07:41.496Z,92.48
2018-06-29T02:08:41.494Z,91.52
2018-06-29T02:09:41.467Z,91.52
2018-06-29T02:10:41.461Z,91.42
2018-06-29T02:11:41.443Z,91.23
2018-06-29T02:12:41.437Z,91.81
2018-06-29T02:13:41.439Z,92.19
2018-06-29T02:14:41.409Z,92.29
2018-06-29T02:15:41.400Z,92.77
2018-06-29T02:16:41.388Z,92.33
2018-06-29T02:17:41.394Z,92.43
2018-06-29T02:18:41.359Z,93.39
2018-06-29T02:19:41.354Z,93.20
2018-06-29T02:20:41.342Z,92.91
2018-06-29T02:21:41.328Z,93.01
2018-06-29T02:22:41.313Z,94.16
2018-06-29T02:23:41.318Z,94.07
2018-06-29T02:24:41.302Z,94.07
2018-06-29T02:25:41.280Z,94.26
2018-06-29T02:26:41.286Z,94.35
2018-06-29T02:27:41.311Z,94.83
2018-06-29T02:28:41.240Z,94.93
2018-06-29T02:29:41.233Z,94.64
2018-06-29T02:30:41.259Z,95.50
2018-06-29T02:31:41.223Z,94.74
2018-06-29T02:32:41.203Z,95.03
2018-06-29T02:33:41.183Z,95.50
2018-06-29T02:34:41.175Z,95.12
2018-06-29T02:35:41.157Z,95.31
2018-06-29T02:36:41.172Z,96.56
2018-06-29T02:37:41.168Z,97.04
2018-06-29T02:38:41.121Z,96.99
2018-06-29T02:39:41.109Z,97.28
2018-06-29T02:40:41.095Z,97.86
2018-06-29T02:41:41.102Z,98.53
2018-06-29T02:42:41.075Z,98.33
2018-06-29T02:43:41.054Z,98.72
2018-06-29T02:44:41.047Z,99.20
2018-06-29T02:45:41.044Z,99.10
2018-06-29T02:46:41.050Z,98.62
2018-06-29T02:47:41.012Z,99.01
2018-06-29T02:48:41.018Z,99.29
2018-06-29T02:49:40.987Z,99.39
2018-06-29T02:50:40.977Z,98.82
2018-06-29T02:51:41.003Z,99.68
2018-06-29T02:52:40.955Z,99.77
2018-06-29T02:53:40.946Z,99.96
2018-06-29T02:54:40.929Z,99.96
2018-06-29T02:55:40.916Z,99.99
2018-06-29T02:56:40.906Z,99.99
2018-06-29T02:57:40.906Z,99.99
2018-06-29T02:58:40.878Z,99.99
2018-06-29T02:59:40.877Z,99.99
2018-06-29T03:00:40.854Z,99.99
2018-06-29T03:01:40.839Z,99.99
2018-06-29T03:02:40.847Z,99.99
2018-06-29T03:03:40.815Z,99.99
2018-06-29T03:04:40.803Z,99.99
2018-06-29T03:05:40.811Z,99.99
2018-06-29T03:06:40.777Z,99.99
2018-06-29T03:07:40.767Z,99.99
2018-06-29T03:08:40.772Z,99.99
2018-06-29T03:09:40.752Z,99.99
2018-06-29T03:10:40.736Z,99.99
2018-06-29T03:11:40.719Z,99.77
2018-06-29T03:12:40.708Z,99.99
2018-06-29T03:13:43.490Z,99.96
2018-06-29T03:14:40.692Z,99.99
2018-06-29T03:15:40.669Z,99.99
2018-06-29T03:16:40.650Z,99.99
2018-06-29T03:17:40.645Z,99.99
2018-06-29T03:18:40.633Z,99.99
2018-06-29T03:19:40.638Z,99.99
2018-06-29T03:20:40.624Z,99.99
2018-06-29T03:21:40.597Z,99.99
2018-06-29T03:22:40.577Z,99.99
2018-06-29T03:23:40.569Z,99.99
2018-06-29T03:24:40.559Z,99.99
2018-06-29T03:25:40.563Z,99.99
2018-06-29T03:26:40.530Z,99.99
2018-06-29T03:27:40.515Z,99.99
2018-06-29T03:28:40.509Z,99.99
2018-06-29T03:29:40.488Z,99.99
2018-06-29T03:30:40.513Z,99.99
2018-06-29T03:31:40.465Z,99.99
2018-06-29T03:32:40.458Z,99.99
2018-06-29T03:33:40.445Z,99.99
2018-06-29T03:34:40.436Z,99.99
2018-06-29T03:35:40.428Z,99.99
2018-06-29T03:37:01.423Z,99.99
2018-06-29T03:37:40.400Z,99.99
2018-06-29T03:38:40.381Z,99.99
2018-06-29T03:39:40.363Z,99.99
2018-06-29T03:40:40.418Z,99.99
2018-06-29T03:41:40.360Z,99.99
2018-06-29T03:42:40.335Z,99.99
2018-06-29T03:43:40.320Z,99.99
2018-06-29T03:44:40.303Z,99.99
2018-06-29T03:45:40.293Z,99.99
2018-06-29T03:46:40.284Z,99.99
2018-06-29T03:47:40.290Z,99.99
2018-06-29T03:48:40.260Z,99.99
2018-06-29T03:49:42.002Z,99.99
2018-06-29T03:50:40.234Z,99.99
2018-06-29T03:51:40.242Z,99.99
2018-06-29T03:52:40.211Z,99.99
2018-06-29T03:53:40.211Z,99.99
2018-06-29T03:54:40.198Z,99.99
2018-06-29T03:55:40.173Z,99.99
2018-06-29T03:56:40.172Z,99.99
2018-06-29T03:57:42.007Z,99.99
2018-06-29T03:58:40.137Z,99.99
2018-06-29T03:59:40.124Z,99.99
2018-06-29T04:00:40.109Z,99.99
2018-06-29T04:01:40.102Z,99.99
2018-06-29T04:02:40.102Z,99.99
2018-06-29T04:03:40.089Z,99.99
2018-06-29T04:04:40.063Z,99.99
2018-06-29T04:05:40.055Z,99.99
2018-06-29T04:06:42.006Z,99.99
2018-06-29T04:07:40.025Z,99.99
2018-06-29T04:08:40.013Z,99.99
2018-06-29T04:09:40.017Z,99.99
2018-06-29T04:10:39.985Z,99.99
2018-06-29T04:11:39.977Z,99.99
2018-06-29T04:12:39.966Z,99.99
2018-06-29T04:13:39.946Z,99.99
2018-06-29T04:14:39.951Z,99.99
2018-06-29T04:15:39.922Z,99.99
2018-06-29T04:16:39.911Z,99.99
2018-06-29T04:17:39.903Z,99.99
2018-06-29T04:18:39.887Z,99.99
2018-06-29T04:19:39.891Z,99.99
2018-06-29T04:20:39.865Z,99.99
2018-06-29T04:21:39.847Z,99.99
2018-06-29T04:22:39.856Z,99.99
2018-06-29T04:23:39.822Z,99.99
2018-06-29T04:24:39.829Z,99.99
2018-06-29T04:25:39.799Z,99.99
2018-06-29T04:26:39.789Z,99.99
2018-06-29T04:27:39.779Z,99.99
2018-06-29T04:28:39.766Z,99.99
2018-06-29T04:29:39.767Z,99.99
2018-06-29T04:30:39.743Z,99.99
2018-06-29T04:31:39.731Z,99.99
2018-06-29T04:32:39.716Z,99.99
2018-06-29T04:33:39.705Z,99.99
2018-06-29T04:34:39.693Z,99.99
2018-06-29T04:35:39.695Z,99.99
2018-06-29T04:36:39.668Z,99.99
2018-06-29T04:37:39.663Z,99.99
2018-06-29T04:38:39.638Z,99.99
2018-06-29T04:39:39.647Z,99.99
2018-06-29T04:40:39.616Z,99.99
2018-06-29T04:41:39.618Z,99.99
2018-06-29T04:42:39.597Z,99.87
2018-06-29T04:43:39.577Z,98.53
2018-06-29T04:44:39.566Z,98.48
2018-06-29T04:45:39.572Z,96.85
2018-06-29T04:46:39.564Z,96.03
2018-06-29T04:47:40.058Z,95.17
2018-06-29T04:48:39.515Z,93.58
2018-06-29T04:49:39.509Z,91.94
2018-06-29T04:50:39.497Z,90.41
2018-06-29T04:51:39.504Z,89.49
2018-06-29T04:52:39.470Z,87.56
2018-06-29T04:53:39.459Z,85.78
2018-06-29T04:54:39.455Z,85.58
2018-06-29T04:55:39.439Z,84.62
2018-06-29T04:56:39.426Z,84.43
2018-06-29T04:57:39.432Z,84.23
2018-06-29T04:58:39.411Z,83.47
2018-06-29T04:59:39.387Z,82.54
2018-06-29T05:00:39.381Z,82.26
2018-06-29T05:01:39.371Z,81.39
2018-06-29T05:02:39.359Z,81.73
2018-06-29T05:03:39.362Z,81.39
2018-06-29T05:04:39.331Z,81.58
2018-06-29T05:05:39.322Z,81.77
2018-06-29T05:06:39.318Z,80.62
2018-06-29T05:07:39.306Z,80.91
2018-06-29T05:08:39.292Z,81.01
2018-06-29T05:09:39.290Z,81.35
2018-06-29T05:10:39.267Z,81.29
2018-06-29T05:11:39.264Z,81.29
2018-06-29T05:12:39.247Z,81.68
2018-06-29T05:13:39.237Z,81.06
2018-06-29T05:14:40.050Z,81.16
2018-06-29T05:15:39.218Z,81.73
2018-06-29T05:16:39.211Z,82.50
2018-06-29T05:17:39.196Z,82.41
2018-06-29T05:18:39.185Z,82.50
2018-06-29T05:19:39.195Z,82.21
2018-06-29T05:20:39.165Z,82.12
2018-06-29T05:21:39.153Z,82.06
2018-06-29T05:22:39.142Z,81.39
2018-06-29T05:23:39.128Z,81.45
2018-06-29T05:24:39.137Z,81.83
2018-06-29T05:25:39.131Z,82.89
2018-06-29T05:26:39.102Z,83.08
2018-06-29T05:27:39.087Z,83.62
2018-06-29T05:28:39.126Z,83.14
2018-06-29T05:29:39.084Z,83.28
2018-06-29T05:30:39.070Z,83.56
2018-06-29T05:31:39.046Z,84.48
2018-06-29T05:32:39.045Z,83.91
2018-06-29T05:33:39.032Z,84.19
2018-06-29T05:34:39.017Z,85.06
2018-06-29T05:35:39.030Z,85.25
2018-06-29T05:36:39.006Z,84.29
2018-06-29T05:37:38.986Z,83.81
2018-06-29T05:38:38.972Z,84.14
2018-06-29T05:39:38.990Z,82.79
2018-06-29T05:40:38.979Z,83.37
2018-06-29T05:41:39.031Z,83.47
2018-06-29T05:42:38.971Z,82.98
2018-06-29T05:43:38.938Z,83.28
2018-06-29T05:44:38.913Z,83.85
2018-06-29T05:45:38.918Z,83.18
2018-06-29T05:46:38.901Z,82.35
2018-06-29T05:47:38.883Z,82.70
2018-06-29T05:48:38.870Z,83.28
2018-06-29T05:49:38.859Z,82.89
2018-06-29T05:50:38.908Z,82.31
2018-06-29T05:51:38.845Z,83.37
2018-06-29T05:52:38.824Z,83.37
2018-06-29T05:53:38.817Z,83.28
2018-06-29T05:54:38.806Z,82.31
2018-06-29T05:55:38.807Z,82.35
2018-06-29T05:56:38.809Z,82.64
2018-06-29T05:57:38.783Z,81.68
2018-06-29T05:58:38.763Z,82.06
2018-06-29T05:59:38.756Z,81.01
2018-06-29T06:00:38.743Z,80.71
2018-06-29T06:01:38.746Z,81.20
2018-06-29T06:02:38.733Z,81.01
2018-06-29T06:03:38.717Z,81.48
2018-06-29T06:04:38.806Z,81.68
2018-06-29T06:05:38.681Z,82.26
2018-06-29T06:06:38.724Z,81.68
2018-06-29T06:07:38.717Z,80.81
2018-06-29T06:08:38.660Z,79.94
2018-06-29T06:09:38.649Z,79.89
2018-06-29T06:10:38.648Z,81.52
2018-06-29T06:11:38.635Z,80.66
2018-06-29T06:12:38.637Z,81.24
2018-06-29T06:13:38.599Z,81.48
2018-06-29T06:14:38.599Z,79.79
2018-06-29T06:15:38.583Z,80.62
2018-06-29T06:16:38.577Z,81.10
2018-06-29T06:17:38.569Z,80.76
2018-06-29T06:18:38.565Z,80.85
2018-06-29T06:19:38.543Z,79.11
2018-06-29T06:20:38.557Z,78.06
2018-06-29T06:21:38.521Z,77.96
2018-06-29T06:22:38.511Z,78.19
2018-06-29T06:23:38.529Z,77.48
2018-06-29T06:24:38.486Z,78.00
2018-06-29T06:25:38.478Z,78.83
2018-06-29T06:26:38.478Z,78.00
2018-06-29T06:27:38.469Z,78.15
2018-06-29T06:28:38.447Z,77.76
2018-06-29T06:29:38.447Z,77.96
2018-06-29T06:30:38.424Z,79.69
2018-06-29T06:31:38.414Z,79.74
2018-06-29T06:32:38.399Z,78.77
2018-06-29T06:33:38.389Z,77.13
2018-06-29T06:34:38.399Z,76.84
2018-06-29T06:35:38.370Z,76.75
2018-06-29T06:36:38.361Z,77.51
2018-06-29T06:37:38.356Z,76.75
2018-06-29T06:38:38.336Z,78.00
2018-06-29T06:39:38.345Z,78.58
2018-06-29T06:40:38.334Z,77.51
2018-06-29T06:41:38.342Z,78.09
2018-06-29T06:42:38.297Z,76.93
2018-06-29T06:43:38.292Z,76.93
2018-06-29T06:44:38.277Z,77.23
2018-06-29T06:45:38.306Z,77.03
2018-06-29T06:46:38.255Z,77.03
2018-06-29T06:47:38.247Z,77.42
2018-06-29T06:48:38.245Z,77.51
2018-06-29T06:49:38.225Z,77.13
2018-06-29T06:50:38.212Z,75.97
2018-06-29T06:51:38.231Z,75.92
2018-06-29T06:52:38.191Z,75.34
2018-06-29T06:53:38.253Z,74.66
2018-06-29T06:54:38.174Z,73.83
2018-06-29T06:55:38.162Z,72.77
2018-06-29T06:56:38.175Z,72.67
2018-06-29T06:57:38.143Z,72.77
2018-06-29T06:58:38.124Z,72.96
2018-06-29T06:59:38.118Z,72.28
2018-06-29T07:00:38.109Z,72.09
2018-06-29T07:01:38.120Z,71.61
2018-06-29T07:02:38.093Z,70.78
2018-06-29T07:03:38.078Z,70.58
2018-06-29T07:04:38.068Z,71.45
2018-06-29T07:05:38.059Z,70.78
2018-06-29T07:06:38.064Z,69.71
2018-06-29T07:07:38.035Z,69.04
2018-06-29T07:08:38.045Z,69.07
2018-06-29T07:09:38.014Z,69.84
2018-06-29T07:10:38.008Z,68.20
2018-06-29T07:11:37.995Z,68.78
2018-06-29T07:12:38.052Z,68.68
2018-06-29T07:13:37.978Z,68.20
2018-06-29T07:14:37.965Z,68.10
2018-06-29T07:15:37.950Z,68.59
2018-06-29T07:16:37.957Z,68.40
2018-06-29T07:17:37.966Z,67.56
2018-06-29T07:18:37.921Z,67.46
2018-06-29T07:19:37.912Z,67.56
2018-06-29T07:20:37.911Z,67.36
2018-06-29T07:21:37.888Z,68.14
2018-06-29T07:22:37.903Z,67.46
2018-06-29T07:23:37.876Z,67.66
2018-06-29T07:24:37.873Z,67.94
2018-06-29T07:25:37.860Z,67.75
2018-06-29T07:26:37.858Z,66.98
2018-06-29T07:27:37.860Z,66.78
2018-06-29T07:28:37.828Z,67.08
2018-06-29T07:29:37.828Z,67.46
2018-06-29T07:30:37.808Z,67.17
2018-06-29T07:31:37.796Z,66.88
2018-06-29T07:32:37.807Z,66.08
2018-06-29T07:33:37.787Z,67.52
2018-06-29T07:34:37.771Z,68.59
2018-06-29T07:35:37.756Z,69.17
2018-06-29T07:36:37.751Z,70.23
2018-06-29T07:37:37.745Z,68.36
2018-06-29T07:38:37.780Z,69.62
2018-06-29T07:39:37.723Z,69.62
2018-06-29T07:40:37.703Z,68.84
2018-06-29T07:41:37.704Z,69.84
2018-06-29T07:42:37.687Z,69.26
2018-06-29T07:43:37.697Z,68.49
2018-06-29T07:44:37.662Z,66.11
2018-06-29T07:45:37.668Z,66.59
2018-06-29T07:46:37.660Z,66.14
2018-06-29T07:47:37.659Z,64.69
2018-06-29T07:48:37.643Z,64.79
2018-06-29T07:49:37.632Z,64.89
2018-06-29T07:50:37.612Z,63.73
2018-06-29T07:51:37.601Z,64.43
2018-06-29T07:52:37.586Z,63.85
2018-06-29T07:53:37.611Z,62.59
2018-06-29T07:54:37.600Z,60.95
2018-06-29T07:55:37.557Z,62.50
2018-06-29T07:56:37.558Z,61.24
2018-06-29T07:57:37.547Z,61.46
2018-06-29T07:58:37.642Z,60.98
2018-06-29T07:59:37.539Z,61.18
2018-06-29T08:00:37.510Z,60.40
2018-06-29T08:01:37.498Z,61.01
2018-06-29T08:02:37.510Z,60.50
2018-06-29T08:03:37.480Z,61.18
2018-06-29T08:04:37.495Z,60.98
2018-06-29T08:05:37.482Z,61.36
2018-06-29T08:06:37.473Z,61.21
2018-06-29T08:07:37.447Z,60.62
2018-06-29T08:08:38.075Z,60.04
2018-06-29T08:09:37.438Z,59.36
2018-06-29T08:10:37.485Z,59.43
2018-06-29T08:11:37.424Z,58.56
2018-06-29T08:12:37.400Z,57.53
2018-06-29T08:13:37.389Z,57.23
2018-06-29T08:14:37.382Z,56.75
2018-06-29T08:15:37.383Z,58.49
2018-06-29T08:16:37.373Z,58.01
2018-06-29T08:17:37.355Z,56.65
2018-06-29T08:18:37.363Z,56.94
2018-06-29T08:19:37.333Z,58.42
2018-06-29T08:20:37.334Z,56.20
2018-06-29T08:21:37.315Z,57.55
2018-06-29T08:22:37.306Z,55.90
2018-06-29T08:23:37.304Z,55.42
2018-06-29T08:24:37.289Z,55.68
2018-06-29T08:25:37.275Z,56.16
2018-06-29T08:26:37.281Z,55.62
2018-06-29T08:27:37.255Z,54.26
2018-06-29T08:28:37.251Z,53.09
2018-06-29T08:29:37.239Z,52.73
2018-06-29T08:30:37.228Z,53.22
2018-06-29T08:31:37.240Z,51.96
2018-06-29T08:32:37.214Z,52.25
2018-06-29T08:33:37.207Z,53.12
2018-06-29T08:34:37.195Z,51.86
2018-06-29T08:35:37.186Z,52.08
2018-06-29T08:36:37.191Z,51.69
2018-06-29T08:37:37.168Z,50.94
2018-06-29T08:38:37.200Z,49.49
2018-06-29T08:39:37.149Z,49.97
2018-06-29T08:40:37.145Z,49.29
2018-06-29T08:41:37.131Z,49.19
2018-06-29T08:42:37.152Z,50.74
2018-06-29T08:43:37.130Z,48.93
2018-06-29T08:44:37.103Z,47.76
2018-06-29T08:45:37.104Z,49.02
2018-06-29T08:46:37.147Z,48.93
2018-06-29T08:47:37.083Z,48.93
2018-06-29T08:48:37.085Z,48.73
2018-06-29T08:49:37.103Z,48.93
2018-06-29T08:50:37.053Z,49.92
2018-06-29T08:51:37.044Z,48.47
2018-06-29T08:52:37.034Z,48.27
2018-06-29T08:53:37.038Z,48.58
2018-06-29T08:54:37.035Z,47.52
2018-06-29T08:55:37.011Z,47.91
2018-06-29T08:56:37.004Z,47.71
2018-06-29T08:57:37.004Z,46.77
2018-06-29T08:58:36.985Z,46.98
2018-06-29T08:59:36.992Z,44.38
2018-06-29T09:00:36.979Z,45.67
2018-06-29T09:01:36.958Z,45.08
2018-06-29T09:02:36.955Z,43.44
2018-06-29T09:03:36.959Z,42.69
2018-06-29T09:04:36.948Z,42.30
2018-06-29T09:05:36.925Z,41.73
2018-06-29T09:06:36.916Z,41.87
2018-06-29T09:07:36.909Z,41.02
2018-06-29T09:08:37.635Z,38.71
2018-06-29T09:09:36.911Z,38.22
2018-06-29T09:10:36.886Z,37.08
2018-06-29T09:11:36.873Z,38.45
2018-06-29T09:12:36.869Z,37.47
2018-06-29T09:13:36.865Z,37.77
2018-06-29T09:14:36.854Z,36.14
2018-06-29T09:15:36.862Z,35.76
2018-06-29T09:16:36.836Z,35.76
2018-06-29T09:17:36.836Z,36.43
2018-06-29T09:18:36.825Z,36.71
2018-06-29T09:19:36.820Z,36.24
2018-06-29T09:20:36.823Z,36.88
2018-06-29T09:21:36.817Z,37.47
2018-06-29T09:22:36.805Z,36.87
2018-06-29T09:23:36.789Z,36.80
2018-06-29T09:24:36.788Z,36.51
2018-06-29T09:25:36.782Z,36.72
2018-06-29T09:26:36.792Z,36.74
2018-06-29T09:27:36.763Z,36.76
2018-06-29T09:28:36.760Z,37.31
2018-06-29T09:29:36.770Z,36.04
2018-06-29T09:30:36.755Z,36.53
2018-06-29T09:31:36.765Z,35.86
2018-06-29T09:32:36.750Z,35.37
2018-06-29T09:33:36.744Z,35.27
2018-06-29T09:34:36.742Z,35.17
2018-06-29T09:35:36.737Z,35.37
2018-06-29T09:36:36.750Z,34.70
2018-06-29T09:37:36.735Z,34.52
2018-06-29T09:38:36.733Z,33.74
2018-06-29T09:39:36.724Z,34.15
2018-06-29T09:40:36.728Z,34.93
2018-06-29T09:41:36.725Z,33.48
2018-06-29T09:42:36.821Z,32.20
2018-06-29T09:43:36.717Z,32.59
2018-06-29T09:44:36.727Z,32.89
2018-06-29T09:45:36.718Z,33.58
2018-06-29T09:46:36.723Z,33.77
2018-06-29T09:47:36.731Z,31.92
2018-06-29T09:48:36.736Z,32.82
2018-06-29T09:49:36.720Z,33.51
2018-06-29T09:50:36.719Z,34.16
2018-06-29T09:51:36.713Z,32.40
2018-06-29T09:52:36.729Z,33.87
2018-06-29T09:53:36.736Z,34.96
2018-06-29T09:54:36.735Z,35.17
2018-06-29T09:55:36.716Z,35.19
2018-06-29T09:56:36.721Z,33.82
2018-06-29T09:57:36.722Z,34.34
2018-06-29T09:58:36.737Z,33.77
2018-06-29T09:59:36.735Z,32.38
2018-06-29T10:00:36.771Z,31.99
2018-06-29T10:01:36.725Z,31.89
2018-06-29T10:02:39.273Z,32.30
2018-06-29T10:03:36.745Z,32.48
2018-06-29T10:04:36.724Z,32.48
2018-06-29T10:05:36.726Z,32.28
2018-06-29T10:06:36.724Z,31.70
2018-06-29T10:07:36.731Z,32.57
2018-06-29T10:08:36.744Z,31.77
2018-06-29T10:09:36.750Z,31.10
2018-06-29T10:10:36.732Z,31.60
2018-06-29T10:11:36.732Z,31.60
2018-06-29T10:12:36.735Z,31.77
2018-06-29T10:13:36.730Z,31.40
2018-06-29T10:14:36.752Z,31.99
2018-06-29T10:15:36.758Z,31.13
2018-06-29T10:16:36.739Z,30.45
2018-06-29T10:17:36.744Z,31.02
2018-06-29T10:18:36.742Z,31.12
2018-06-29T10:19:36.870Z,30.05
2018-06-29T10:20:36.761Z,31.35
2018-06-29T10:21:36.751Z,31.25
2018-06-29T10:22:36.752Z,30.76
2018-06-29T10:23:36.754Z,31.15
2018-06-29T10:24:36.764Z,30.85
2018-06-29T10:25:36.767Z,31.15
2018-06-29T10:26:36.758Z,29.79
2018-06-29T10:27:36.755Z,30.56
2018-06-29T10:28:36.756Z,29.71
2018-06-29T10:29:36.762Z,29.21
2018-06-29T10:30:38.620Z,28.34
2018-06-29T10:31:36.764Z,29.74
2018-06-29T10:32:36.774Z,29.52
2018-06-29T10:33:36.771Z,28.34
2018-06-29T10:34:36.774Z,29.24
2018-06-29T10:35:36.779Z,28.55
2018-06-29T10:36:36.837Z,27.57
2018-06-29T10:37:36.794Z,28.26
2018-06-29T10:38:36.802Z,28.45
2018-06-29T10:39:36.786Z,28.85
2018-06-29T10:40:36.792Z,28.54
2018-06-29T10:41:36.802Z,29.44
2018-06-29T10:42:36.797Z,28.93
2018-06-29T10:43:36.823Z,28.95
2018-06-29T10:44:36.816Z,29.82
2018-06-29T10:45:36.812Z,28.33
2018-06-29T10:46:36.812Z,28.64
2018-06-29T10:47:36.808Z,28.52
2018-06-29T10:48:36.828Z,28.33
2018-06-29T10:49:36.818Z,28.82
2018-06-29T10:50:36.819Z,29.21
2018-06-29T10:51:36.827Z,29.31
2018-06-29T10:52:36.829Z,28.92
2018-06-29T10:53:36.868Z,29.34
2018-06-29T10:54:36.838Z,28.37
2018-06-29T10:55:36.834Z,28.28
2018-06-29T10:56:36.855Z,28.36
2018-06-29T10:57:36.839Z,28.24
2018-06-29T10:58:36.899Z,28.44
2018-06-29T10:59:36.866Z,28.72
2018-06-29T11:00:36.856Z,28.54
2018-06-29T11:01:36.860Z,28.16
2018-06-29T11:02:36.861Z,29.23
2018-06-29T11:03:36.867Z,29.03
2018-06-29T11:04:36.908Z,28.55
2018-06-29T11:05:36.878Z,28.56
2018-06-29T11:06:36.879Z,28.28
2018-06-29T11:07:36.880Z,28.47
2018-06-29T11:08:36.888Z,28.55
2018-06-29T11:09:36.886Z,28.06
2018-06-29T11:10:36.908Z,26.59
2018-06-29T11:11:36.896Z,28.37
2018-06-29T11:12:36.897Z,26.59
2018-06-29T11:13:36.922Z,27.79
2018-06-29T11:14:36.912Z,27.30
2018-06-29T11:15:36.921Z,26.41
2018-06-29T11:16:36.911Z,27.68
2018-06-29T11:17:36.930Z,28.86
2018-06-29T11:18:36.925Z,29.05
2018-06-29T11:19:36.929Z,29.23
2018-06-29T11:20:36.950Z,28.03
2018-06-29T11:21:36.947Z,27.64
2018-06-29T11:22:36.970Z,28.63
2018-06-29T11:23:36.948Z,28.42
2018-06-29T11:24:36.979Z,26.47
2018-06-29T11:25:36.966Z,29.05
2018-06-29T11:26:36.957Z,27.67
2018-06-29T11:27:36.970Z,27.87
2018-06-29T11:28:36.969Z,27.40
2018-06-29T11:29:36.974Z,28.66
2018-06-29T11:30:37.065Z,26.50
2018-06-29T11:31:38.761Z,27.37
2018-06-29T11:32:51.952Z,27.67
2018-06-29T11:33:37.001Z,28.05
2018-06-29T11:34:37.006Z,26.97
2018-06-29T11:35:36.993Z,26.39
2018-06-29T11:36:37.019Z,27.57
2018-06-29T11:37:37.028Z,26.48
2018-06-29T11:38:37.009Z,26.48
2018-06-29T11:39:37.035Z,26.79
2018-06-29T11:40:37.011Z,26.10
2018-06-29T11:41:37.048Z,26.40
2018-06-29T11:42:37.069Z,27.66
2018-06-29T11:43:38.138Z,27.47
2018-06-29T11:44:37.054Z,25.50
2018-06-29T11:45:38.640Z,26.10
2018-06-29T11:46:37.043Z,26.59
2018-06-29T11:47:37.067Z,26.20
2018-06-29T11:48:37.068Z,26.39
2018-06-29T11:49:37.066Z,26.18
2018-06-29T11:50:37.094Z,26.75
2018-06-29T11:51:37.072Z,26.17
2018-06-29T11:52:37.103Z,28.33
2018-06-29T11:53:37.100Z,28.23
2018-06-29T11:54:37.106Z,27.66
2018-06-29T11:55:37.134Z,26.78
2018-06-29T11:56:37.110Z,26.19
2018-06-29T11:57:37.121Z,28.26
2018-06-29T11:58:37.177Z,25.40
2018-06-29T11:59:37.135Z,28.65
2018-06-29T12:00:37.142Z,27.67
2018-06-29T12:01:37.119Z,27.57
2018-06-29T12:02:37.147Z,26.57
2018-06-29T12:03:37.128Z,29.23
2018-06-29T12:04:37.145Z,27.36
2018-06-29T12:05:37.139Z,28.44
2018-06-29T12:06:37.160Z,29.80
2018-06-29T12:07:37.137Z,28.51
2018-06-29T12:08:37.139Z,28.69
2018-06-29T12:09:37.172Z,27.71
2018-06-29T12:10:37.170Z,29.00
2018-06-29T12:11:37.153Z,30.58
2018-06-29T12:12:37.160Z,29.77
2018-06-29T12:13:37.172Z,29.77
2018-06-29T12:14:37.179Z,29.09
2018-06-29T12:15:37.168Z,29.77
2018-06-29T12:16:37.172Z,28.79
2018-06-29T12:17:37.176Z,28.89
2018-06-29T12:18:37.187Z,28.59
2018-06-29T12:19:37.203Z,27.91
2018-06-29T12:20:37.216Z,29.77
2018-06-29T12:21:37.187Z,28.40
2018-06-29T12:22:37.189Z,29.09
2018-06-29T12:23:37.196Z,30.02
2018-06-29T12:24:37.195Z,29.05
2018-06-29T12:25:37.286Z,28.16
2018-06-29T12:26:37.217Z,27.98
2018-06-29T12:27:37.212Z,31.01
2018-06-29T12:28:37.231Z,28.17
2018-06-29T12:29:37.295Z,28.47
2018-06-29T12:30:37.237Z,27.59
2018-06-29T12:31:37.215Z,29.85
2018-06-29T12:32:37.246Z,28.97
2018-06-29T12:33:37.235Z,29.17
2018-06-29T12:34:37.264Z,28.68
2018-06-29T12:35:37.276Z,28.58
2018-06-29T12:36:37.276Z,29.66
2018-06-29T12:37:37.269Z,29.86
2018-06-29T12:38:37.247Z,29.37
2018-06-29T12:39:37.251Z,29.66
2018-06-29T12:40:37.276Z,28.58
2018-06-29T12:41:37.282Z,29.28
2018-06-29T12:42:37.284Z,28.97
2018-06-29T12:43:37.291Z,29.86
2018-06-29T12:44:37.278Z,29.16
2018-06-29T12:45:37.279Z,29.45
2018-06-29T12:46:37.292Z,30.24
2018-06-29T12:47:37.286Z,29.14
2018-06-29T12:48:37.276Z,30.82
2018-06-29T12:49:37.278Z,30.91
2018-06-29T12:50:37.284Z,30.30
2018-06-29T12:51:37.388Z,31.27
2018-06-29T12:52:37.315Z,30.78